West Orca Bay - 8nm Nw Of Hinchinbrook Is , Ak (46060) Wave Buoy

7:50am - Fri 21st Oct 2016 All times are AKDT. -8 hours from GMT.

  • Sig Wave height 1.0ft
  • Swell Direction
  • Peak Period 10s
  • Average Period 5s
  • Wind
    7mph, 9mph gusts
  • Sea Temp 50°f
  • Air Temp 43°f
  • Sea Pressure 998mb
  • West Orca Bay - 8nm Nw Of Hinchinbrook  Is , Ak
  • West Orca Bay - 8nm Nw Of Hinchinbrook  Is , Ak

More Historic Weather Station data

Upgrade to MSW Pro to gain access to the past 30 days of data for over 8000 Wavebouys and Weather Stations around the globe.

Join Pro

Comparision Forecast

View Surf forecast
Fri 10/21 7:50am 1ft 10s 5s 7 9 mph 998mb 50f 43f
6:50am 1.3ft 9s 4s 9
998.3mb 50f 43f
5:50am 1.6ft 3s 4s 13 16 mph 998.7mb 50f 43f
4:50am 1.6ft 10s 4s 16 20 mph 998.9mb 50f 44f
3:50am 1.3ft 9s 6s 7 9 mph 999.4mb 50f 46f
2:50am 1.6ft 9s 7s 4 7 mph 999.8mb 50f 47f
1:50am 1.3ft 9s 6s 7
1000mb 50f 46f
12:50am 1.6ft 10s 6s 7
1000.4mb 50f 46f
Thu 10/20 11:50pm 1.3ft 10s 5s 7
1000.6mb 50f 46f
10:50pm 1.6ft 10s 5s 11 13 mph 1000.5mb 50f 46f
9:50pm 1.6ft 10s 6s 7 9 mph 1000.7mb 50f 47f
8:50pm 1.6ft 11s 5s 9 11 mph 1000.4mb 50f 47f
6:50pm 2ft 11s 6s 9 11 mph 1000.3mb 49f 47f
5:50pm 2.5ft 11s 7s 9 11 mph 1000.4mb 49f 47f
4:50pm 2.5ft 10s 7s 9
1000.4mb 49f 48f
3:50pm 2.5ft 11s 7s 7 9 mph 1000.8mb 50f 48f
1:50pm 3.5ft 11s 7s 4
1001.8mb 49f 47f
12:50pm 4ft 10s 8s 4 7 mph 1002.1mb 49f 46f
11:50am 3.5ft 10s 7s 4 7 mph 1002.1mb 49f 47f
10:50am 3ft 10s 7s 7
1002.2mb 50f 46f
9:50am 3.5ft 10s 7s 7 9 mph 1002mb 50f 47f
8:50am 3ft 11s 6s 11 16 mph 1001.5mb 49f 47f
7:50am 3.5ft 11s 6s 13 16 mph 1001.5mb 49f 47f
6:50am 3.5ft 11s 4s 18 20 mph 1001.1mb 50f 46f
5:50am 3.5ft 10s 5s 18 22 mph 1000.8mb 50f 46f
4:50am 4ft 10s 5s 22 27 mph 1000.6mb 50f 46f
3:50am 4ft 11s 5s 25 29 mph 1000.5mb 50f 45f
2:50am 4ft 10s 5s 16 20 mph 1000.4mb 50f 47f
1:50am 3.5ft 11s 5s 20 25 mph 1000.5mb 50f 47f
12:50am 3ft 10s 5s 13 18 mph 1000.3mb 50f 48f
Wed 10/19 11:50pm 3.5ft 10s 5s 13 16 mph 1000.2mb 50f 49f
10:50pm 3.5ft 12s 5s 18 20 mph 999.6mb 50f 49f
9:50pm 3.5ft 11s 5s 20 25 mph 999mb 51f 49f
8:50pm 4ft 11s 4s 22 27 mph 998.6mb 51f 50f
7:50pm 3.5ft 4s 4s 25 31 mph 998.1mb 51f 50f
6:50pm 3.5ft 12s 4s 27 34 mph 997mb 51f 50f
5:50pm 3.5ft 11s 6s 22 29 mph 996.4mb 51f 51f
4:50pm 3.5ft 11s 6s 13 16 mph 995.7mb 50f 50f
3:50pm 4.5ft 11s 6s 9 11 mph 995.3mb 50f 49f
2:50pm 4.5ft 11s 7s 7 9 mph 995.2mb 50f 49f
1:50pm 5ft 11s 8s 9 11 mph 996.1mb 51f 49f
12:50pm 5ft 11s 7s 2 4 mph 997.1mb 50f 49f
11:50am 4.5ft 11s 7s 4 7 mph 998.3mb 50f 48f
10:50am 3.5ft 11s 6s 13 16 mph 998.5mb 50f 48f
9:50am 3.5ft 10s 6s 9 11 mph 999.4mb 50f 47f
8:50am 2.5ft 9s 6s 11 13 mph 999.9mb 50f 48f
7:50am 2ft 8s 5s 9 11 mph 1000.5mb 50f 46f
6:50am 2ft 8s 4s 13 16 mph 1001mb 50f 46f
5:50am 2ft 8s 4s 7 9 mph 1001.8mb 50f 48f
4:50am 2ft 11s 4s 7 9 mph 1002.5mb 50f 47f
3:50am 1.6ft 7s 4s 13 16 mph 1002.6mb 50f 47f
2:50am 1.6ft 8s 4s 4 9 mph 1003.3mb 50f 48f
1:50am 1.6ft 7s 4s 7
1003.7mb 50f 46f
12:50am 1.6ft 8s 4s 11
1003.7mb 50f 47f
Tue 10/18 11:50pm 2ft 8s 4s 9 11 mph 1003.9mb 50f 46f
10:50pm 2ft 7s 4s 11 13 mph 1004mb 50f 48f
9:50pm 2.5ft 7s 5s 13 16 mph 1004.1mb 50f 47f
8:50pm 2ft 3s 4s 11 18 mph 1004.3mb 50f 47f
7:50pm 2ft 3s 4s 13 18 mph 1003.8mb 50f 48f
6:50pm 1.6ft 3s 4s 11 13 mph 1003.5mb 50f 47f
5:50pm 2.5ft 4s 4s 11 13 mph 1003.4mb 51f 47f
4:50pm 2.5ft 4s 4s 16 18 mph 1003.4mb 51f 47f
3:50pm 2.5ft 4s 4s 13 18 mph 1003.5mb 51f 44f
2:50pm 2.5ft 4s 4s 13 18 mph 1003.6mb 51f 44f
1:50pm 2.5ft 3s 4s 18 25 mph 1003.4mb 51f 44f
12:50pm 2.5ft 3s 3s 20 25 mph 1003.3mb 51f 45f
11:50am 2ft 4s 4s 18 22 mph 1003.1mb 51f 46f
10:50am 2.5ft 4s 4s 16 20 mph 1002.8mb 50f 46f
9:50am 2.5ft 4s 4s 16 20 mph 1002.2mb 49f 45f
8:50am 3ft 4s 4s 18 22 mph 1002.2mb 49f 44f
7:50am 3ft 4s 4s 20 22 mph 1001.5mb 49f 43f
6:50am 3ft 4s 4s 22 27 mph 1000.7mb 49f 43f
5:50am 2.5ft 4s 4s 20 27 mph 999.9mb 49f 42f
4:50am 3.5ft 4s 4s 22 27 mph 998.9mb 49f 42f
3:50am 3.5ft 4s 4s 20 25 mph 998.2mb 49f 42f
2:50am 3.5ft 4s 4s 22 29 mph 997.3mb 48f 43f
1:50am 2.5ft 4s 4s 22 27 mph 996.4mb 48f 42f
12:50am 2.5ft 4s 4s 18 22 mph 995.7mb 48f 41f
Mon 10/17 11:50pm 1.6ft 5s 4s 22 27 mph 994.5mb 48f 41f
10:50pm 1.3ft 3s 4s 16 25 mph 994.3mb 48f 39f
9:50pm 2ft 3s 3s 18 20 mph 992.5mb 49f 42f
8:50pm 2ft 3s 3s 22 25 mph 991.3mb 49f 43f
7:50pm 1.6ft 3s 4s 11 13 mph 990.3mb 49f 44f
6:50pm 2ft 3s 4s 7 11 mph 988.7mb 49f 43f
5:50pm 3ft 4s 4s 13 16 mph 986.6mb 49f 41f